Terminal Aerodrome Forecast
Issued by NWS Duluth, MN

Home | Current Version | Previous Version | Text Only | Print | Product List | Glossary On
Versions: 1 2 3 4 5 6 7 8 9 10 11 12 13 14 15 16 17 18
000
FTUS43 KDLH 251100
TAFDLH
TAF
KDLH 251125Z 2512/2612 13007KT P6SM VCSH SCT035 BKN060
      TEMPO 2515/2519 BKN025
     FM251900 16009KT P6SM SCT020 BKN045
      TEMPO 2520/2523 5SM TSRA BR BKN015CB
     FM260300 22004KT 5SM BR SCT015
      TEMPO 2603/2607 1SM BR
     FM260900 28007KT 6SM BR FEW010=

USA.gov is the U.S. government's official web portal to all federal, state and local government web resources and services.